Time;durP1;ratioP1;P1;durP2;ratioP2;P2;SDS_P1;SDS_P2;PMS_P1;PMS_P2;Temp;Humidity;BMP_temperature;BMP_pressure;BME280_temperature;BME280_humidity;BME280_pressure;Samples;Min_cycle;Max_cycle;Signal;HPM_P1;HPM_P2
2021/03/11 00:01:00;;;;;;;;;;;;;;;-7.37;64.01;100923.22;1746899;81;20191;-82
2021/03/11 00:03:28;;;;;;;;;;;;;;;-7.40;64.07;100927.44;1734553;83;20274;-74
2021/03/11 00:05:58;;;;;;;;;;;;;;;-7.43;64.02;100928.14;1745943;81;20248;-74
2021/03/11 00:08:25;;;;;;;;;;;;;;;-7.48;64.23;100937.81;1754272;81;20629;-81
2021/03/11 00:10:53;;;;;;;;;;;;;;;-7.51;64.75;100931.39;1755875;81;20569;-79
2021/03/11 00:13:21;;;;;;;;;;;;;;;-7.54;64.53;100930.32;1754268;81;20243;-79
2021/03/11 00:15:48;;;;;;;;;;;;;;;-7.53;64.97;100935.98;1741388;81;20579;-79
2021/03/11 00:18:16;;;;;;;;;;;;;;;-7.52;65.16;100936.84;1752467;81;20217;-72
2021/03/11 00:20:44;;;;;;;;;;;;;;;-7.54;64.97;100934.31;1751600;81;20205;-86
2021/03/11 00:23:14;;;;;;;;;;;;;;;-7.57;65.13;100929.22;1749213;81;20212;-76
2021/03/11 00:25:42;;;;;;;;;;;;;;;-7.57;65.07;100933.20;1749012;82;20262;-86
2021/03/11 00:28:09;;;;;;;;;;;;;;;-7.57;65.30;100931.02;1755002;82;20192;-86
2021/03/11 00:30:37;;;;;;;;;;;;;;;-7.59;65.24;100932.48;1711631;83;20175;-77
2021/03/11 00:33:05;;;;;;;;;;;;;;;-7.62;64.97;100930.05;1743310;81;20177;-76
2021/03/11 00:35:34;;;;;;;;;;;;;;;-7.65;65.03;100926.29;1755451;81;20393;-75
2021/03/11 00:38:04;;;;;;;;;;;;;;;-7.65;65.16;100928.09;1742666;82;20187;-76
2021/03/11 00:40:33;;;;;;;;;;;;;;;-7.67;65.02;100932.69;1752889;82;20472;-76
2021/03/11 00:43:01;;;;;;;;;;;;;;;-7.69;65.14;100928.83;1750510;81;20251;-79
2021/03/11 00:45:29;;;;;;;;;;;;;;;-7.72;65.30;100929.05;1744811;82;20190;-75
2021/03/11 00:47:56;;;;;;;;;;;;;;;-7.77;65.34;100924.56;1742308;81;20218;-74
2021/03/11 00:50:25;;;;;;;;;;;;;;;-7.81;65.01;100923.09;1759333;81;20180;-70
2021/03/11 00:52:52;;;;;;;;;;;;;;;-7.84;65.48;100929.95;1754623;81;20177;-78
2021/03/11 00:55:21;;;;;;;;;;;;;;;-7.89;65.52;100928.13;1759354;81;20189;-78
2021/03/11 00:57:49;;;;;;;;;;;;;;;-7.86;65.53;100923.91;1743850;81;20246;-71
2021/03/11 01:00:21;;;;;;;;;;;;;;;-7.86;65.56;100925.24;1735433;82;20198;-71
2021/03/11 01:02:53;;;;;;;;;;;;;;;-7.84;65.57;100926.82;1742160;82;20166;-72
2021/03/11 01:05:29;;;;;;;;;;;;;;;-7.84;65.67;100922.84;1743705;81;20512;-71
2021/03/11 01:07:57;;;;;;;;;;;;;;;-7.81;65.51;100922.61;1743758;82;20178;-74
2021/03/11 01:10:25;;;;;;;;;;;;;;;-7.85;65.08;100922.97;1744332;81;20179;-74
2021/03/11 01:12:53;;;;;;;;;;;;;;;-7.89;65.38;100921.48;1752719;82;20194;-77
2021/03/11 01:15:21;;;;;;;;;;;;;;;-7.93;65.91;100927.52;1754810;81;20216;-79
2021/03/11 01:17:49;;;;;;;;;;;;;;;-8.00;65.68;100930.28;1737386;82;20189;-79
2021/03/11 01:20:18;;;;;;;;;;;;;;;-8.07;65.40;100928.19;1755053;81;20502;-78
2021/03/11 01:22:45;;;;;;;;;;;;;;;-8.16;65.37;100928.37;1757190;81;20190;-75
2021/03/11 01:25:13;;;;;;;;;;;;;;;-8.23;65.53;100936.44;1741538;82;20194;-72
2021/03/11 01:27:41;;;;;;;;;;;;;;;-8.27;65.71;100936.81;1744400;81;20210;-76
2021/03/11 01:30:12;;;;;;;;;;;;;;;-8.28;65.91;100944.39;1744544;81;20179;-73
2021/03/11 01:32:39;;;;;;;;;;;;;;;-8.27;65.94;100948.25;1738174;82;20366;-73
2021/03/11 01:35:08;;;;;;;;;;;;;;;-8.26;66.04;100943.29;1738063;82;20211;-73
2021/03/11 01:37:35;;;;;;;;;;;;;;;-8.24;66.20;100950.66;1714211;84;20176;-79
2021/03/11 01:40:05;;;;;;;;;;;;;;;-8.21;66.60;100941.63;1744150;81;20210;-80
2021/03/11 01:42:34;;;;;;;;;;;;;;;-8.16;66.60;100951.42;1755199;82;20503;-73
2021/03/11 01:45:03;;;;;;;;;;;;;;;-8.08;67.28;100949.05;1750809;82;20189;-73
2021/03/11 01:47:31;;;;;;;;;;;;;;;-8.02;66.87;100948.62;1747409;82;20245;-80
2021/03/11 01:49:58;;;;;;;;;;;;;;;-7.98;67.12;100954.91;1751526;82;20212;-72
2021/03/11 01:52:27;;;;;;;;;;;;;;;-7.97;67.00;100951.78;1749891;82;20168;-72
2021/03/11 01:54:54;;;;;;;;;;;;;;;-7.97;67.01;100952.59;1754011;82;20248;-73
2021/03/11 01:57:22;;;;;;;;;;;;;;;-7.97;67.20;100959.23;1747569;82;20181;-73
2021/03/11 01:59:50;;;;;;;;;;;;;;;-7.94;66.86;100962.15;1743823;81;20363;-79
2021/03/11 02:02:18;;;;;;;;;;;;;;;-7.95;67.02;100965.78;1711408;82;20545;-79
2021/03/11 02:04:46;;;;;;;;;;;;;;;-7.97;67.23;100970.38;1739808;82;20185;-81
2021/03/11 02:07:15;;;;;;;;;;;;;;;-7.98;67.37;100969.99;1757809;82;20169;-74
2021/03/11 02:09:43;;;;;;;;;;;;;;;-8.02;68.05;100973.84;1755867;82;20214;-80
2021/03/11 02:12:26;;;;;;;;;;;;;;;-7.99;67.88;100975.78;1747296;82;20201;-81
2021/03/11 02:15:12;;;;;;;;;;;;;;;-7.99;67.62;100977.58;1747482;82;20213;-73
2021/03/11 02:17:44;;;;;;;;;;;;;;;-7.99;67.78;100982.89;1747577;82;20193;-79
2021/03/11 02:20:25;;;;;;;;;;;;;;;-8.06;68.26;100981.19;1747240;82;20241;-74
2021/03/11 02:23:14;;;;;;;;;;;;;;;-8.11;68.51;100982.47;1749290;82;20157;-81
2021/03/11 02:25:48;;;;;;;;;;;;;;;-8.10;68.46;100989.49;1755112;81;20181;-73
2021/03/11 02:28:24;;;;;;;;;;;;;;;-8.13;68.55;100989.23;1757138;80;20201;-82
2021/03/11 02:30:55;;;;;;;;;;;;;;;-8.16;68.85;100991.25;1744478;82;20254;-84
2021/03/11 02:33:23;;;;;;;;;;;;;;;-8.15;68.96;100999.60;1714123;83;20181;-77
2021/03/11 02:35:53;;;;;;;;;;;;;;;-8.16;68.90;100997.89;1712305;83;20189;-84
2021/03/11 02:38:21;;;;;;;;;;;;;;;-8.20;69.15;100997.77;1747493;82;20220;-76
2021/03/11 02:40:49;;;;;;;;;;;;;;;-8.28;69.33;101002.33;1755624;82;20699;-78
2021/03/11 02:43:18;;;;;;;;;;;;;;;-8.32;69.88;101004.00;1757012;82;20173;-70
2021/03/11 02:45:45;;;;;;;;;;;;;;;-8.35;69.78;100996.25;1757291;82;20433;-71
2021/03/11 02:48:13;;;;;;;;;;;;;;;-8.41;70.14;101001.04;1729048;82;20217;-78
2021/03/11 02:50:40;;;;;;;;;;;;;;;-8.43;69.90;101003.44;1747196;82;20181;-71
2021/03/11 02:53:09;;;;;;;;;;;;;;;-8.45;70.29;101008.83;1746980;82;20204;-70
2021/03/11 02:55:39;;;;;;;;;;;;;;;-8.48;70.20;101000.26;1747531;82;20177;-77
2021/03/11 02:58:09;;;;;;;;;;;;;;;-8.54;70.24;101006.84;1747455;82;20201;-81
2021/03/11 03:00:37;;;;;;;;;;;;;;;-8.58;70.33;101011.16;1751865;82;20165;-70
2021/03/11 03:03:06;;;;;;;;;;;;;;;-8.64;70.68;101012.91;1757806;81;20233;-82
2021/03/11 03:05:34;;;;;;;;;;;;;;;-8.68;70.78;101005.66;1757886;82;20604;-79
2021/03/11 03:08:02;;;;;;;;;;;;;;;-8.69;70.90;101008.40;1757673;81;20174;-82
2021/03/11 03:10:31;;;;;;;;;;;;;;;-8.70;70.91;101007.55;1757851;82;20181;-71
2021/03/11 03:13:01;;;;;;;;;;;;;;;-8.73;70.94;101012.23;1757279;82;20169;-77
2021/03/11 03:15:28;;;;;;;;;;;;;;;-8.79;71.08;101018.81;1747103;82;20252;-75
2021/03/11 03:17:56;;;;;;;;;;;;;;;-8.81;71.19;101018.55;1705382;83;20185;-79
2021/03/11 03:20:24;;;;;;;;;;;;;;;-8.88;71.54;101014.64;1741425;81;20173;-78
2021/03/11 03:22:52;;;;;;;;;;;;;;;-8.91;71.43;101017.50;1742857;81;20648;-79
2021/03/11 03:25:22;;;;;;;;;;;;;;;-8.95;71.77;101022.66;1756148;81;20264;-74
2021/03/11 03:27:49;;;;;;;;;;;;;;;-8.98;71.55;101015.76;1746568;81;20248;-78
2021/03/11 03:30:17;;;;;;;;;;;;;;;-8.98;71.90;101018.41;1719297;81;20477;-74
2021/03/11 03:32:46;;;;;;;;;;;;;;;-8.96;71.80;101018.30;1759981;81;20189;-75
2021/03/11 03:35:15;;;;;;;;;;;;;;;-8.97;71.76;101016.11;1744430;81;20203;-79
2021/03/11 03:37:43;;;;;;;;;;;;;;;-9.02;71.94;101022.20;1756753;82;20337;-73
2021/03/11 03:40:13;;;;;;;;;;;;;;;-9.09;71.74;101021.80;1757115;82;20181;-77
2021/03/11 03:43:05;;;;;;;;;;;;;;;-9.10;72.02;101021.88;1753053;82;20515;-74
2021/03/11 03:45:36;;;;;;;;;;;;;;;-9.11;71.80;101016.22;1753567;82;20181;-74
2021/03/11 03:48:04;;;;;;;;;;;;;;;-9.12;72.07;101016.70;1756492;82;20177;-74
2021/03/11 03:50:31;;;;;;;;;;;;;;;-9.19;72.02;101022.52;1722479;82;20188;-77
2021/03/11 03:52:59;;;;;;;;;;;;;;;-9.26;72.33;101027.37;1725356;82;20169;-77
2021/03/11 03:55:27;;;;;;;;;;;;;;;-9.31;72.48;101027.34;1752645;82;20480;-77
2021/03/11 03:57:55;;;;;;;;;;;;;;;-9.34;72.52;101027.07;1753530;81;20181;-78
2021/03/11 04:00:22;;;;;;;;;;;;;;;-9.33;72.30;101034.05;1752674;82;20189;-74
2021/03/11 04:02:53;;;;;;;;;;;;;;;-9.32;72.45;101038.41;1757592;82;20232;-74
2021/03/11 04:05:22;;;;;;;;;;;;;;;-9.34;72.65;101035.48;1756904;82;20212;-78
2021/03/11 04:07:50;;;;;;;;;;;;;;;-9.36;72.34;101037.40;1757374;82;20181;-74
2021/03/11 04:10:17;;;;;;;;;;;;;;;-9.35;72.32;101043.05;1757236;80;20571;-78
2021/03/11 04:12:45;;;;;;;;;;;;;;;-9.39;72.63;101034.95;1756997;81;20200;-75
2021/03/11 04:15:12;;;;;;;;;;;;;;;-9.41;72.31;101039.52;1756905;80;20212;-79
2021/03/11 04:17:42;;;;;;;;;;;;;;;-9.41;72.69;101040.84;1757314;82;20516;-76
2021/03/11 04:20:10;;;;;;;;;;;;;;;-9.37;72.65;101046.29;1756701;82;20181;-78
2021/03/11 04:22:37;;;;;;;;;;;;;;;-9.35;72.68;101043.05;1727720;83;20516;-78
2021/03/11 04:25:05;;;;;;;;;;;;;;;-9.37;72.60;101048.94;1756331;80;20244;-73
2021/03/11 04:27:33;;;;;;;;;;;;;;;-9.35;72.73;101048.36;1741962;82;20194;-72
2021/03/11 04:30:01;;;;;;;;;;;;;;;-9.32;72.60;101054.78;1752273;82;20180;-73
2021/03/11 04:32:28;;;;;;;;;;;;;;;-9.31;72.29;101063.94;1747232;82;20201;-72
2021/03/11 04:34:56;;;;;;;;;;;;;;;-9.31;72.18;101061.80;1756266;82;20217;-83
2021/03/11 04:37:23;;;;;;;;;;;;;;;-9.35;72.52;101066.44;1757336;82;20274;-81
2021/03/11 04:39:51;;;;;;;;;;;;;;;-9.30;72.63;101071.42;1755726;82;20197;-71
2021/03/11 04:42:19;;;;;;;;;;;;;;;-9.25;72.36;101067.98;1750761;82;20181;-73
2021/03/11 04:44:48;;;;;;;;;;;;;;;-9.23;72.01;101067.41;1749447;82;20253;-72
2021/03/11 04:47:16;;;;;;;;;;;;;;;-9.21;71.95;101066.84;1747329;82;20202;-72
2021/03/11 04:49:44;;;;;;;;;;;;;;;-9.16;71.83;101075.34;1752232;82;20205;-83
2021/03/11 04:52:13;;;;;;;;;;;;;;;-9.16;71.74;101070.86;1754895;81;20576;-72
2021/03/11 04:54:43;;;;;;;;;;;;;;;-9.16;72.08;101071.36;1749360;82;20209;-84
2021/03/11 04:57:10;;;;;;;;;;;;;;;-9.11;72.02;101074.05;1747383;82;20491;-80
2021/03/11 04:59:38;;;;;;;;;;;;;;;-9.09;71.29;101085.43;1748672;81;20633;-75
2021/03/11 05:02:06;;;;;;;;;;;;;;;-9.09;71.58;101080.13;1755570;81;20207;-75
2021/03/11 05:04:33;;;;;;;;;;;;;;;-9.09;71.26;101077.95;1711742;82;20184;-87
2021/03/11 05:07:04;;;;;;;;;;;;;;;-9.08;71.30;101084.92;1711568;83;20253;-72
2021/03/11 05:09:32;;;;;;;;;;;;;;;-9.06;71.45;101079.06;1751965;82;20241;-72
2021/03/11 05:12:00;;;;;;;;;;;;;;;-8.98;71.40;101084.70;1744752;81;20202;-76
2021/03/11 05:14:29;;;;;;;;;;;;;;;-8.94;70.73;101090.16;1753764;81;20181;-77
2021/03/11 05:16:56;;;;;;;;;;;;;;;-8.97;70.39;101088.19;1712398;82;20195;-76
2021/03/11 05:19:25;;;;;;;;;;;;;;;-8.94;70.91;101096.80;1755196;81;20189;-76
2021/03/11 05:21:53;;;;;;;;;;;;;;;-8.88;70.77;101092.88;1751595;81;20200;-76
2021/03/11 05:24:21;;;;;;;;;;;;;;;-8.83;70.16;101095.59;1743115;81;20505;-77
2021/03/11 05:26:48;;;;;;;;;;;;;;;-8.79;69.92;101102.38;1746561;82;20216;-84
2021/03/11 05:29:16;;;;;;;;;;;;;;;-8.72;69.81;101104.13;1751061;81;20544;-82
2021/03/11 05:31:44;;;;;;;;;;;;;;;-8.69;69.72;101110.55;1752178;82;20193;-77
2021/03/11 05:34:12;;;;;;;;;;;;;;;-8.65;69.56;101105.42;1748283;81;20205;-72
2021/03/11 05:36:42;;;;;;;;;;;;;;;-8.60;69.46;101105.45;1755007;82;20213;-70
2021/03/11 05:39:09;;;;;;;;;;;;;;;-8.52;69.55;101111.08;1753537;82;20424;-72
2021/03/11 05:41:38;;;;;;;;;;;;;;;-8.47;69.41;101109.42;1756792;82;20189;-80
2021/03/11 05:44:07;;;;;;;;;;;;;;;-8.39;69.28;101113.73;1742835;81;20189;-78
2021/03/11 05:46:39;;;;;;;;;;;;;;;-8.31;69.18;101121.16;1738270;82;20285;-79
2021/03/11 05:49:08;;;;;;;;;;;;;;;-8.24;68.85;101124.56;1761160;81;20298;-80
2021/03/11 05:51:37;;;;;;;;;;;;;;;-8.21;68.21;101118.19;1756544;81;20256;-75
2021/03/11 05:54:06;;;;;;;;;;;;;;;-8.17;68.33;101127.66;1754170;81;20267;-75
2021/03/11 05:56:35;;;;;;;;;;;;;;;-8.10;68.50;101138.21;1724063;82;20189;-81
2021/03/11 05:59:05;;;;;;;;;;;;;;;-8.03;68.24;101136.81;1746545;81;20191;-76
2021/03/11 06:01:34;;;;;;;;;;;;;;;-8.03;67.72;101135.48;1739072;81;20604;-76
2021/03/11 06:04:04;;;;;;;;;;;;;;;-8.03;67.74;101147.44;1757385;81;20269;-75
2021/03/11 06:06:35;;;;;;;;;;;;;;;-8.04;66.69;101143.07;1729508;81;20271;-77
2021/03/11 06:09:05;;;;;;;;;;;;;;;-8.01;67.52;101140.20;1744896;81;20719;-83
2021/03/11 06:11:37;;;;;;;;;;;;;;;-7.91;66.98;101140.77;1709999;81;20197;-81
2021/03/11 06:14:07;;;;;;;;;;;;;;;-7.81;66.47;101140.95;1734825;81;20178;-80
2021/03/11 06:16:39;;;;;;;;;;;;;;;-7.72;66.64;101142.97;1743619;81;20186;-84
2021/03/11 06:19:11;;;;;;;;;;;;;;;-7.64;66.36;101129.98;1706835;81;20191;-79
2021/03/11 06:21:42;;;;;;;;;;;;;;;-7.58;66.15;101145.47;1754950;81;20268;-77
2021/03/11 06:24:15;;;;;;;;;;;;;;;-7.51;65.23;101146.71;1744219;81;20627;-74
2021/03/11 06:26:42;;;;;;;;;;;;;;;-7.47;64.40;101148.20;1750175;81;20186;-81
2021/03/11 06:29:10;;;;;;;;;;;;;;;-7.42;64.58;101155.36;1754862;81;20209;-70
2021/03/11 06:31:38;;;;;;;;;;;;;;;-7.40;63.85;101146.79;1717158;81;20251;-74
2021/03/11 06:34:19;;;;;;;;;;;;;;;-7.38;63.69;101155.49;1726389;81;20273;-73
2021/03/11 06:36:47;;;;;;;;;;;;;;;-7.37;63.50;101158.53;1747585;81;20616;-75
2021/03/11 06:39:28;;;;;;;;;;;;;;;-7.34;63.17;101159.64;1746018;80;20216;-75
2021/03/11 06:41:57;;;;;;;;;;;;;;;-7.32;63.62;101154.20;1756312;82;20517;-77
2021/03/11 06:44:36;;;;;;;;;;;;;;;-7.30;63.27;101154.45;1756745;81;20177;-73
2021/03/11 06:47:05;;;;;;;;;;;;;;;-7.23;63.08;101155.70;1755976;81;20184;-75
2021/03/11 06:49:33;;;;;;;;;;;;;;;-7.18;62.77;101156.68;1754382;82;20168;-75
2021/03/11 06:52:14;;;;;;;;;;;;;;;-7.14;63.04;101152.37;1753414;81;20245;-73
2021/03/11 06:54:53;;;;;;;;;;;;;;;-7.04;63.04;101159.66;1735194;81;20509;-73
2021/03/11 06:57:41;;;;;;;;;;;;;;;-7.00;62.57;101159.78;1727647;82;20263;-80
2021/03/11 07:00:18;;;;;;;;;;;;;;;-6.98;62.42;101164.02;1707515;84;20177;-80
2021/03/11 07:02:56;;;;;;;;;;;;;;;-6.95;62.26;101165.13;1732287;81;20541;-74
2021/03/11 07:05:27;;;;;;;;;;;;;;;-6.89;62.57;101163.35;1742390;81;20189;-73
2021/03/11 07:08:19;;;;;;;;;;;;;;;-6.80;62.90;101155.14;1747213;82;20252;-78
2021/03/11 07:10:47;;;;;;;;;;;;;;;-6.77;61.53;101151.77;1750221;81;20189;-72
2021/03/11 07:13:15;;;;;;;;;;;;;;;-6.67;61.64;101151.44;1756495;82;20189;-79
2021/03/11 07:15:43;;;;;;;;;;;;;;;-6.62;61.59;101158.59;1740749;81;20247;-78
2021/03/11 07:18:21;;;;;;;;;;;;;;;-6.53;61.30;101167.20;1738255;81;20175;-72
2021/03/11 07:20:49;;;;;;;;;;;;;;;-6.54;60.31;101165.52;1721516;82;20183;-73
2021/03/11 07:23:17;;;;;;;;;;;;;;;-6.49;60.75;101155.84;1746867;81;20242;-72
2021/03/11 07:25:45;;;;;;;;;;;;;;;-6.40;61.07;101160.95;1742173;81;20187;-72
2021/03/11 07:28:27;;;;;;;;;;;;;;;-6.37;59.95;101153.55;1756026;81;20567;-82
2021/03/11 07:30:58;;;;;;;;;;;;;;;-6.37;59.78;101162.87;1750172;81;20281;-81
2021/03/11 07:33:35;;;;;;;;;;;;;;;-6.30;60.28;101160.61;1756213;81;20189;-72
2021/03/11 07:36:09;;;;;;;;;;;;;;;-6.22;60.34;101167.02;1753890;81;20248;-73
2021/03/11 07:38:37;;;;;;;;;;;;;;;-6.18;60.67;101159.64;1755597;82;20209;-72
2021/03/11 07:41:08;;;;;;;;;;;;;;;-6.07;60.19;101164.48;1747422;81;20181;-72
2021/03/11 07:43:38;;;;;;;;;;;;;;;-6.02;59.12;101163.64;1749040;80;20250;-77
2021/03/11 07:46:06;;;;;;;;;;;;;;;-6.02;59.55;101163.64;1706049;81;20149;-79
2021/03/11 07:48:35;;;;;;;;;;;;;;;-6.00;59.83;101161.73;1748680;81;20216;-79
2021/03/11 07:51:04;;;;;;;;;;;;;;;-5.91;59.46;101155.66;1744657;82;20169;-80
2021/03/11 07:53:33;;;;;;;;;;;;;;;-5.85;59.39;101156.52;1753987;80;20223;-80
2021/03/11 07:56:01;;;;;;;;;;;;;;;-5.75;59.13;101159.25;1746326;82;20220;-80
2021/03/11 07:58:31;;;;;;;;;;;;;;;-5.69;58.45;101155.26;1747749;81;20189;-78
2021/03/11 08:01:04;;;;;;;;;;;;;;;-5.58;59.12;101165.41;1755527;82;20209;-79
2021/03/11 08:03:33;;;;;;;;;;;;;;;-5.46;59.25;101164.89;1750464;81;20185;-79
2021/03/11 08:06:21;;;;;;;;;;;;;;;-5.39;59.05;101158.12;1738362;82;20543;-83
2021/03/11 08:08:49;;;;;;;;;;;;;;;-5.37;58.81;101150.83;1743275;82;20217;-75
2021/03/11 08:11:32;;;;;;;;;;;;;;;-5.37;58.90;101152.16;1739749;82;20272;-79
2021/03/11 08:14:22;;;;;;;;;;;;;;;-5.36;58.44;101149.36;1746128;81;20218;-80
2021/03/11 08:16:51;;;;;;;;;;;;;;;-5.38;58.21;101147.31;1738483;81;20616;-79
2021/03/11 08:19:39;;;;;;;;;;;;;;;-5.39;58.21;101148.78;1743934;82;20306;-82
2021/03/11 08:22:07;;;;;;;;;;;;;;;-5.32;58.93;101160.16;1741691;82;20658;-74
2021/03/11 08:24:42;;;;;;;;;;;;;;;-5.22;58.02;101157.58;1728331;82;20205;-80
2021/03/11 08:27:30;;;;;;;;;;;;;;;-5.20;57.93;101154.30;1745284;81;20259;-79
2021/03/11 08:29:58;;;;;;;;;;;;;;;-5.17;57.95;101159.38;1742556;81;20571;-80
2021/03/11 08:32:50;;;;;;;;;;;;;;;-5.06;58.36;101165.17;1743909;82;20212;-81
2021/03/11 08:35:32;;;;;;;;;;;;;;;-4.99;57.42;101159.20;1750852;82;20189;-83
2021/03/11 08:38:27;;;;;;;;;;;;;;;-4.96;56.71;101160.29;1747753;81;20216;-81
2021/03/11 08:41:05;;;;;;;;;;;;;;;-4.91;56.53;101154.08;1743968;82;20290;-77
2021/03/11 08:43:41;;;;;;;;;;;;;;;-4.91;56.54;101150.08;1739013;82;20189;-80
2021/03/11 08:46:09;;;;;;;;;;;;;;;-4.93;56.21;101154.67;1751308;82;20689;-78
2021/03/11 08:48:50;;;;;;;;;;;;;;;-4.89;57.00;101145.45;1733745;82;20244;-74
2021/03/11 08:51:22;;;;;;;;;;;;;;;-4.80;56.68;101154.02;1732148;82;20184;-84
2021/03/11 08:53:53;;;;;;;;;;;;;;;-4.74;56.15;101147.31;1757137;82;20200;-79
2021/03/11 08:56:28;;;;;;;;;;;;;;;-4.68;56.88;101150.30;1751535;81;20193;-74
2021/03/11 08:59:05;;;;;;;;;;;;;;;-4.58;57.53;101147.22;1749893;81;20205;-81
2021/03/11 09:01:49;;;;;;;;;;;;;;;-4.51;56.21;101147.56;1710003;82;20553;-75
2021/03/11 09:04:24;;;;;;;;;;;;;;;-4.44;55.96;101153.22;1737583;81;20184;-71
2021/03/11 09:07:01;;;;;;;;;;;;;;;-4.34;55.54;101151.45;1742912;82;20384;-75
2021/03/11 09:09:45;;;;;;;;;;;;;;;-4.30;53.89;101149.71;1748985;81;20539;-79
2021/03/11 09:12:16;;;;;;;;;;;;;;;-4.34;54.65;101148.78;1749239;81;20189;-77
2021/03/11 09:14:46;;;;;;;;;;;;;;;-4.34;54.67;101143.44;1714667;82;20161;-75
2021/03/11 09:17:15;;;;;;;;;;;;;;;-4.30;55.62;101142.22;1746017;81;20186;-79
2021/03/11 09:19:49;;;;;;;;;;;;;;;-4.28;56.21;101142.92;1749431;81;20188;-75
2021/03/11 09:22:20;;;;;;;;;;;;;;;-4.27;55.96;101149.94;1750375;81;20192;-76
2021/03/11 09:24:57;;;;;;;;;;;;;;;-4.22;55.38;101147.72;1714484;81;20245;-73
2021/03/11 09:27:28;;;;;;;;;;;;;;;-4.21;54.51;101138.25;1749408;81;20221;-79
2021/03/11 09:30:01;;;;;;;;;;;;;;;-4.24;55.17;101145.19;1743625;81;20210;-76
2021/03/11 09:32:29;;;;;;;;;;;;;;;-4.29;54.65;101139.88;1750248;81;20185;-75
2021/03/11 09:34:58;;;;;;;;;;;;;;;-4.27;55.66;101141.44;1747348;81;20183;-78
2021/03/11 09:37:53;;;;;;;;;;;;;;;-4.24;56.15;101145.19;1747588;81;20215;-78
2021/03/11 09:40:24;;;;;;;;;;;;;;;-4.18;55.31;101141.15;1708154;82;20650;-78
2021/03/11 09:42:59;;;;;;;;;;;;;;;-4.13;56.37;101141.59;1736552;81;20183;-76
2021/03/11 09:45:42;;;;;;;;;;;;;;;-4.03;55.91;101139.81;1743213;81;20194;-78
2021/03/11 09:48:22;;;;;;;;;;;;;;;-3.85;55.81;101140.89;1721860;82;20557;-79
2021/03/11 09:51:05;;;;;;;;;;;;;;;-3.71;55.49;101137.83;1744963;81;20209;-74
2021/03/11 09:53:39;;;;;;;;;;;;;;;-3.57;55.60;101144.16;1749325;81;20189;-76
2021/03/11 09:56:23;;;;;;;;;;;;;;;-3.44;53.94;101147.41;1741044;81;20194;-77
2021/03/11 09:59:04;;;;;;;;;;;;;;;-3.50;53.92;101137.27;1709980;83;20206;-69
2021/03/11 10:01:38;;;;;;;;;;;;;;;-3.49;54.12;101130.09;1746363;81;20224;-76
2021/03/11 10:04:14;;;;;;;;;;;;;;;-3.58;54.13;101134.91;1746237;80;20702;-77
2021/03/11 10:06:56;;;;;;;;;;;;;;;-3.68;53.64;101137.56;1734040;81;20206;-74
2021/03/11 10:09:25;;;;;;;;;;;;;;;-3.75;54.13;101129.73;1738564;82;20543;-77
2021/03/11 10:11:55;;;;;;;;;;;;;;;-3.65;53.97;101123.06;1745812;81;20257;-77
2021/03/11 10:14:25;;;;;;;;;;;;;;;-3.47;53.89;101134.81;1751532;81;20188;-80
2021/03/11 10:16:54;;;;;;;;;;;;;;;-3.42;54.17;101125.39;1719501;82;20182;-86
2021/03/11 10:19:27;;;;;;;;;;;;;;;-3.33;54.06;101124.55;1745794;81;20773;-79
2021/03/11 10:22:03;;;;;;;;;;;;;;;-3.21;53.58;101120.76;1729202;81;20176;-72
2021/03/11 10:24:35;;;;;;;;;;;;;;;-3.06;54.11;101123.05;1743553;81;20481;-81
2021/03/11 10:27:24;;;;;;;;;;;;;;;-3.00;53.48;101132.69;1744483;81;20264;-81
2021/03/11 10:30:19;;;;;;;;;;;;;;;-2.88;53.38;101122.67;1739254;81;20233;-76
2021/03/11 10:32:51;;;;;;;;;;;;;;;-2.91;51.94;101114.94;1745999;81;20515;-78
2021/03/11 10:35:29;;;;;;;;;;;;;;;-3.02;52.72;101118.60;1748324;81;20193;-76
2021/03/11 10:38:20;;;;;;;;;;;;;;;-3.05;53.16;101110.84;1749878;81;20205;-79
2021/03/11 10:40:49;;;;;;;;;;;;;;;-2.98;53.25;101113.79;1748193;81;20485;-80
2021/03/11 10:43:24;;;;;;;;;;;;;;;-2.86;53.44;101113.50;1744088;81;20265;-75
2021/03/11 10:45:52;;;;;;;;;;;;;;;-2.73;53.47;101112.73;1741465;81;20196;-78
2021/03/11 10:48:20;;;;;;;;;;;;;;;-2.58;53.30;101117.18;1742380;81;20540;-76
2021/03/11 10:50:49;;;;;;;;;;;;;;;-2.47;52.47;101110.78;1745473;81;20230;-75
2021/03/11 10:53:19;;;;;;;;;;;;;;;-2.40;53.08;101111.41;1695938;83;20226;-79
2021/03/11 10:55:47;;;;;;;;;;;;;;;-2.32;51.98;101101.30;1738431;81;20206;-83
2021/03/11 10:58:24;;;;;;;;;;;;;;;-2.30;51.69;101103.36;1758809;81;20241;-79
2021/03/11 11:01:06;;;;;;;;;;;;;;;-2.33;51.19;101093.77;1743768;81;20206;-77
2021/03/11 11:03:35;;;;;;;;;;;;;;;-2.32;51.03;101098.13;1710546;82;20247;-81
2021/03/11 11:06:04;;;;;;;;;;;;;;;-2.24;50.52;101088.86;1747918;81;20248;-77
2021/03/11 11:08:33;;;;;;;;;;;;;;;-2.21;50.79;101087.23;1750774;80;20252;-82
2021/03/11 11:11:02;;;;;;;;;;;;;;;-2.17;51.05;101080.58;1750055;82;20597;-76
2021/03/11 11:13:30;;;;;;;;;;;;;;;-2.07;51.35;101086.75;1744986;82;20193;-75
2021/03/11 11:15:58;;;;;;;;;;;;;;;-2.08;50.48;101085.57;1745908;82;20236;-75
2021/03/11 11:18:26;;;;;;;;;;;;;;;-2.13;49.51;101094.06;1741995;82;20241;-76
2021/03/11 11:20:55;;;;;;;;;;;;;;;-2.27;48.96;101093.17;1733494;82;20188;-74
2021/03/11 11:23:23;;;;;;;;;;;;;;;-2.47;49.42;101095.55;1750722;80;20225;-76
2021/03/11 11:25:50;;;;;;;;;;;;;;;-2.67;50.17;101091.22;1747239;80;20234;-74
2021/03/11 11:28:18;;;;;;;;;;;;;;;-2.82;51.00;101089.48;1742204;81;20247;-75
2021/03/11 11:30:49;;;;;;;;;;;;;;;-2.93;50.89;101086.09;1743351;81;20535;-77
2021/03/11 11:33:25;;;;;;;;;;;;;;;-3.05;51.31;101088.08;1746616;82;20475;-74
2021/03/11 11:35:53;;;;;;;;;;;;;;;-3.28;50.30;101081.30;1749820;82;20280;-74
2021/03/11 11:38:21;;;;;;;;;;;;;;;-3.40;50.78;101082.42;1747097;80;20228;-77
2021/03/11 11:40:49;;;;;;;;;;;;;;;-3.50;51.23;101077.55;1724336;81;20200;-74
2021/03/11 11:43:17;;;;;;;;;;;;;;;-3.47;51.84;101071.44;1745501;81;20635;-75
2021/03/11 11:45:45;;;;;;;;;;;;;;;-3.44;52.11;101071.14;1746935;82;20189;-75
2021/03/11 11:48:13;;;;;;;;;;;;;;;-3.38;52.43;101073.75;1733918;82;20182;-74
2021/03/11 11:50:43;;;;;;;;;;;;;;;-3.30;50.15;101065.39;1731708;82;20218;-73
2021/03/11 11:53:10;;;;;;;;;;;;;;;-3.31;49.99;101064.17;1707427;83;20193;-73
2021/03/11 11:55:38;;;;;;;;;;;;;;;-3.24;51.18;101051.95;1753795;81;20249;-80
2021/03/11 11:58:06;;;;;;;;;;;;;;;-3.07;52.03;101055.25;1754521;81;20176;-80
2021/03/11 12:13:42;;;;;;;38.30;9.30;;;;;;;-2.50;48.42;101061.00;1796216;77;28320;-76
2021/03/11 12:16:10;;;;;;;;;;;;;;;-2.49;47.09;101051.98;1749473;80;21242;-75
2021/03/11 12:18:40;;;;;;;21.60;8.80;;;;;;;-2.61;48.15;101053.14;1781692;79;20441;-76
2021/03/11 12:21:08;;;;;;;21.37;8.38;;;;;;;-2.64;48.77;101052.94;1782790;80;21132;-73
2021/03/11 12:23:38;;;;;;;17.03;8.00;;;;;;;-2.64;48.88;101054.77;1778699;80;21092;-73
2021/03/11 12:26:06;;;;;;;30.05;8.78;;;;;;;-2.64;49.82;101052.94;1785687;79;21322;-73
2021/03/11 12:28:35;;;;;;;18.02;8.03;;;;;;;-2.66;48.11;101060.77;1783320;78;21374;-78
2021/03/11 12:31:03;;;;;;;18.80;8.20;;;;;;;-2.67;47.37;101059.06;1719739;81;21104;-76
2021/03/11 12:33:33;;;;;;;21.93;7.77;;;;;;;-2.66;47.92;101057.57;1746092;81;21264;-74
2021/03/11 12:36:04;;;;;;;39.63;8.10;;;;;;;-2.74;47.59;101054.80;1697555;83;21164;-76
2021/03/11 12:38:32;;;;;;;25.33;8.17;;;;;;;-2.79;48.31;101064.24;1724509;82;21160;-74
2021/03/11 12:41:02;;;;;;;19.73;7.53;;;;;;;-2.90;47.18;101062.56;1726069;82;21635;-79
2021/03/11 12:43:32;;;;;;;24.80;8.60;;;;;;;-2.93;47.20;101053.95;1726696;82;21136;-77
2021/03/11 12:46:01;;;;;;;17.50;7.13;;;;;;;-3.00;47.72;101055.03;1721976;82;21140;-84
2021/03/11 12:48:30;;;;;;;20.33;7.53;;;;;;;-3.04;45.96;101052.78;1717603;81;21225;-78
2021/03/11 12:50:59;;;;;;;16.35;7.08;;;;;;;-3.13;47.61;101050.94;1727084;81;21532;-75
2021/03/11 12:53:28;;;;;;;20.93;7.57;;;;;;;-3.13;46.52;101057.63;1746726;81;21575;-79
2021/03/11 12:55:56;;;;;;;18.77;7.53;;;;;;;-3.22;46.22;101053.50;1749169;81;21198;-77
2021/03/11 12:59:40;;;;;;;17.07;8.18;;;;;;;-3.33;47.09;101049.61;1801867;77;28970;-81
2021/03/11 13:02:08;;;;;;;18.75;7.80;;;;;;;-3.40;46.37;101051.16;1765545;78;21122;-79
2021/03/11 13:04:36;;;;;;;;;;;;;;;-3.44;47.26;101047.05;1737206;82;21145;-82